createdAt,value
2018-02-27T00:01:44.585Z,-6.33
2018-02-27T00:04:16.519Z,-6.39
2018-02-27T00:06:46.568Z,-6.37
2018-02-27T00:09:16.538Z,-6.46
2018-02-27T00:11:47.639Z,-6.35
2018-02-27T00:14:17.757Z,-6.52
2018-02-27T00:16:47.893Z,-6.58
2018-02-27T00:19:18.992Z,-6.70
2018-02-27T00:21:49.287Z,-6.77
2018-02-27T00:24:19.231Z,-6.86
2018-02-27T00:26:48.823Z,-6.81
2018-02-27T00:29:19.064Z,-6.78
2018-02-27T00:31:49.646Z,-6.89
2018-02-27T00:34:20.118Z,-6.87
2018-02-27T00:36:50.456Z,-6.90
2018-02-27T00:39:20.964Z,-7.00
2018-02-27T00:41:51.649Z,-7.10
2018-02-27T00:44:22.038Z,-7.04
2018-02-27T00:46:52.731Z,-7.17
2018-02-27T00:49:22.878Z,-7.26
2018-02-27T00:51:53.498Z,-7.16
2018-02-27T00:54:24.969Z,-7.18
2018-02-27T00:56:54.865Z,-7.17
2018-02-27T00:59:24.962Z,-7.09
2018-02-27T01:01:55.106Z,-7.22
2018-02-27T01:04:25.636Z,-7.33
2018-02-27T01:07:00.903Z,-7.38
2018-02-27T01:09:30.547Z,-7.60
2018-02-27T01:12:00.476Z,-7.43
2018-02-27T01:14:30.914Z,-7.41
2018-02-27T01:17:01.533Z,-7.65
2018-02-27T01:19:32.453Z,-7.62
2018-02-27T01:22:02.585Z,-7.49
2018-02-27T01:24:32.291Z,-7.57
2018-02-27T01:27:02.225Z,-7.53
2018-02-27T01:29:32.529Z,-7.51
2018-02-27T01:32:03.556Z,-7.94
2018-02-27T01:34:34.868Z,-7.73
2018-02-27T01:37:05.507Z,-7.72
2018-02-27T01:39:35.667Z,-7.59
2018-02-27T01:42:05.580Z,-7.64
2018-02-27T01:44:35.237Z,-7.72
2018-02-27T01:47:04.999Z,-7.67
2018-02-27T01:49:34.895Z,-7.71
2018-02-27T01:52:04.460Z,-7.70
2018-02-27T01:54:34.713Z,-7.66
2018-02-27T01:57:04.524Z,-7.73
2018-02-27T01:59:34.286Z,-7.89
2018-02-27T02:02:06.321Z,-7.93
2018-02-27T02:04:36.489Z,-7.93
2018-02-27T02:07:06.406Z,-7.99
2018-02-27T02:09:37.378Z,-7.99
2018-02-27T02:12:07.155Z,-8.10
2018-02-27T02:14:37.139Z,-8.07
2018-02-27T02:17:06.963Z,-8.14
2018-02-27T02:19:37.300Z,-8.21
2018-02-27T02:22:06.850Z,-8.12
2018-02-27T02:24:37.943Z,-8.21
2018-02-27T02:27:07.988Z,-8.18
2018-02-27T02:29:38.662Z,-8.29
2018-02-27T02:32:10.048Z,-8.46
2018-02-27T02:34:40.461Z,-8.32
2018-02-27T02:37:10.478Z,-8.31
2018-02-27T02:39:40.277Z,-8.45
2018-02-27T02:42:18.667Z,-8.45
2018-02-27T02:44:49.599Z,-8.47
2018-02-27T02:47:19.914Z,-8.45
2018-02-27T02:49:50.380Z,-8.40
2018-02-27T02:52:19.940Z,-8.50
2018-02-27T02:54:49.905Z,-8.70
2018-02-27T02:57:19.657Z,-8.65
2018-02-27T02:59:52.003Z,-8.68
2018-02-27T03:02:24.212Z,-8.62
2018-02-27T03:04:55.606Z,-8.72
2018-02-27T03:07:25.375Z,-8.69
2018-02-27T03:09:55.009Z,-8.80
2018-02-27T03:12:30.182Z,-8.77
2018-02-27T03:15:00.971Z,-8.74
2018-02-27T03:17:30.958Z,-8.90
2018-02-27T03:20:02.286Z,-9.17
2018-02-27T03:22:32.430Z,-8.82
2018-02-27T03:25:01.832Z,-8.95
2018-02-27T03:27:31.632Z,-8.87
2018-02-27T03:30:01.719Z,-8.95
2018-02-27T03:32:31.515Z,-8.87
2018-02-27T03:35:01.109Z,-8.92
2018-02-27T03:37:31.935Z,-8.96
2018-02-27T03:40:02.035Z,-8.97
2018-02-27T03:42:32.173Z,-8.96
2018-02-27T03:45:02.247Z,-9.45
2018-02-27T03:47:32.156Z,-8.98
2018-02-27T03:50:01.871Z,-9.50
2018-02-27T03:52:31.836Z,-9.13
2018-02-27T03:55:01.940Z,-9.06
2018-02-27T03:57:32.442Z,-9.14
2018-02-27T04:00:02.399Z,-9.15
2018-02-27T04:02:32.650Z,-9.13
2018-02-27T04:05:03.810Z,-9.10
2018-02-27T04:07:33.738Z,-9.12
2018-02-27T04:10:03.467Z,-9.12
2018-02-27T04:12:35.502Z,-9.07
2018-02-27T04:15:05.381Z,-9.37
2018-02-27T04:17:35.247Z,-9.23
2018-02-27T04:20:05.359Z,-9.16
2018-02-27T04:22:35.294Z,-9.12
2018-02-27T04:25:05.627Z,-9.51
2018-02-27T04:27:36.598Z,-9.13
2018-02-27T04:30:06.492Z,-9.12
2018-02-27T04:32:37.309Z,-9.26
2018-02-27T04:35:07.437Z,-9.25
2018-02-27T04:37:37.125Z,-9.23
2018-02-27T04:40:06.936Z,-9.31
2018-02-27T04:42:36.808Z,-9.29
2018-02-27T04:45:06.579Z,-9.28
2018-02-27T04:47:36.611Z,-9.14
2018-02-27T04:50:06.398Z,-9.21
2018-02-27T04:52:36.246Z,-9.32
2018-02-27T04:55:06.538Z,-9.27
2018-02-27T04:57:36.481Z,-9.15
2018-02-27T05:00:06.273Z,-9.24
2018-02-27T05:02:36.628Z,-9.21
2018-02-27T05:05:06.506Z,-9.41
2018-02-27T05:07:36.321Z,-9.40
2018-02-27T05:10:06.470Z,-9.32
2018-02-27T05:12:36.356Z,-9.39
2018-02-27T05:15:05.959Z,-9.33
2018-02-27T05:17:35.987Z,-9.49
2018-02-27T05:20:05.519Z,-9.42
2018-02-27T05:22:35.416Z,-9.44
2018-02-27T05:25:05.349Z,-9.54
2018-02-27T05:27:36.138Z,-9.39
2018-02-27T05:30:05.995Z,-9.37
2018-02-27T05:33:17.737Z,-9.39
2018-02-27T05:35:48.831Z,-9.50
2018-02-27T05:38:18.653Z,-9.50
2018-02-27T05:40:49.503Z,-9.60
2018-02-27T05:43:19.401Z,-9.69
2018-02-27T05:45:49.107Z,-9.61
2018-02-27T05:48:19.857Z,-9.59
2018-02-27T05:50:51.656Z,-9.86
2018-02-27T05:53:21.555Z,-9.46
2018-02-27T05:55:51.225Z,-9.46
2018-02-27T05:58:21.301Z,-9.61
2018-02-27T06:00:50.976Z,-9.58
2018-02-27T06:03:20.606Z,-9.69
2018-02-27T06:05:50.446Z,-9.57
2018-02-27T06:08:19.976Z,-9.62
2018-02-27T06:10:49.711Z,-9.82
2018-02-27T06:13:19.563Z,-9.63
2018-02-27T06:15:49.435Z,-9.65
2018-02-27T06:18:19.590Z,-9.59
2018-02-27T06:20:49.765Z,-9.58
2018-02-27T06:23:21.338Z,-9.56
2018-02-27T06:25:51.294Z,-9.57
2018-02-27T06:28:21.395Z,-9.46
2018-02-27T06:30:51.067Z,-9.53
2018-02-27T06:33:20.482Z,-9.48
2018-02-27T06:35:50.773Z,-9.24
2018-02-27T06:38:21.179Z,-9.31
2018-02-27T06:40:51.737Z,-9.49
2018-02-27T06:43:21.518Z,-9.39
2018-02-27T06:45:51.578Z,-9.27
2018-02-27T06:48:21.251Z,-9.17
2018-02-27T06:50:51.001Z,-9.37
2018-02-27T06:53:20.942Z,-9.12
2018-02-27T06:55:50.960Z,-9.22
2018-02-27T06:58:21.310Z,-9.07
2018-02-27T07:00:52.677Z,-9.03
2018-02-27T07:03:22.130Z,-9.07
2018-02-27T07:07:16.167Z,-9.00
2018-02-27T07:09:47.425Z,-9.05
2018-02-27T07:12:18.726Z,-9.04
2018-02-27T07:14:48.154Z,-8.97
2018-02-27T07:17:18.015Z,-9.05
2018-02-27T07:19:47.878Z,-8.97
2018-02-27T07:22:19.244Z,-8.74
2018-02-27T07:24:48.972Z,-8.60
2018-02-27T07:27:20.044Z,-8.50
2018-02-27T07:29:50.203Z,-8.37
2018-02-27T07:32:20.475Z,-8.27
2018-02-27T07:34:50.860Z,-8.13
2018-02-27T07:37:21.526Z,-8.19
2018-02-27T07:39:53.077Z,-8.00
2018-02-27T07:42:23.617Z,-7.96
2018-02-27T07:44:53.682Z,-8.00
2018-02-27T07:47:24.599Z,-7.80
2018-02-27T07:49:54.526Z,-7.74
2018-02-27T07:52:24.892Z,-7.72
2018-02-27T07:54:56.114Z,-7.60
2018-02-27T07:57:26.035Z,-7.56
2018-02-27T07:59:58.205Z,-7.58
2018-02-27T08:02:28.326Z,-7.48
2018-02-27T08:04:58.444Z,-7.60
2018-02-27T08:07:30.187Z,-7.53
2018-02-27T08:10:00.306Z,-7.42
2018-02-27T08:12:30.255Z,-7.33
2018-02-27T08:15:00.247Z,-7.47
2018-02-27T08:17:29.761Z,-7.29
2018-02-27T08:20:01.235Z,-7.22
2018-02-27T08:22:31.114Z,-6.95
2018-02-27T08:25:01.986Z,-7.01
2018-02-27T08:27:31.945Z,-6.59
2018-02-27T08:30:02.075Z,-6.53
2018-02-27T08:32:31.985Z,-6.64
2018-02-27T08:35:01.821Z,-6.79
2018-02-27T08:37:31.423Z,-6.74
2018-02-27T08:40:02.209Z,-7.00
2018-02-27T08:42:32.101Z,-6.46
2018-02-27T08:45:01.865Z,-6.48
2018-02-27T08:47:32.131Z,-6.21
2018-02-27T08:50:02.347Z,-5.79
2018-02-27T08:52:32.731Z,-5.69
2018-02-27T08:55:02.862Z,-5.65
2018-02-27T08:57:32.326Z,-5.88
2018-02-27T09:00:01.792Z,-5.69
2018-02-27T09:02:32.501Z,-5.47
2018-02-27T09:05:02.309Z,-5.46
2018-02-27T09:07:32.673Z,-5.39
2018-02-27T09:10:02.702Z,-5.39
2018-02-27T09:12:32.577Z,-5.41
2018-02-27T09:15:02.119Z,-5.38
2018-02-27T09:17:32.049Z,-5.21
2018-02-27T09:20:01.603Z,-5.26
2018-02-27T09:22:32.276Z,-5.41
2018-02-27T09:25:02.055Z,-5.32
2018-02-27T09:27:32.658Z,-5.08
2018-02-27T09:30:02.670Z,-5.03
2018-02-27T09:32:32.699Z,-5.14
2018-02-27T09:35:02.819Z,-4.93
2018-02-27T09:37:32.390Z,-4.85
2018-02-27T09:40:02.406Z,-5.00
2018-02-27T09:42:32.250Z,-4.99
2018-02-27T09:45:01.966Z,-5.01
2018-02-27T09:47:31.946Z,-4.97
2018-02-27T09:50:02.710Z,-5.29
2018-02-27T09:52:32.494Z,-4.56
2018-02-27T09:55:02.907Z,-4.80
2018-02-27T09:57:32.388Z,-4.17
2018-02-27T10:00:02.654Z,-4.51
2018-02-27T10:02:32.915Z,-5.00
2018-02-27T10:05:02.737Z,-4.93
2018-02-27T10:07:32.467Z,-4.87
2018-02-27T10:10:03.001Z,-4.73
2018-02-27T10:12:33.399Z,-4.81
2018-02-27T10:15:02.963Z,-4.52
2018-02-27T10:17:33.396Z,-4.45
2018-02-27T10:20:02.957Z,-4.93
2018-02-27T10:22:32.894Z,-4.95
2018-02-27T10:25:02.968Z,-4.79
2018-02-27T10:27:32.534Z,-4.16
2018-02-27T10:30:02.186Z,-4.17
2018-02-27T10:32:34.718Z,-3.93
2018-02-27T10:35:04.780Z,-3.72
2018-02-27T10:37:34.762Z,-3.74
2018-02-27T10:40:04.929Z,-3.80
2018-02-27T10:42:35.126Z,-3.96
2018-02-27T10:45:05.372Z,-3.96
2018-02-27T10:47:35.233Z,-3.98
2018-02-27T10:50:06.307Z,-3.67
2018-02-27T10:52:36.849Z,-3.48
2018-02-27T10:55:07.665Z,-3.46
2018-02-27T10:57:37.956Z,-3.26
2018-02-27T11:00:08.165Z,-3.16
2018-02-27T11:02:38.307Z,-3.07
2018-02-27T11:05:07.789Z,-2.79
2018-02-27T11:07:37.627Z,-2.87
2018-02-27T11:10:07.373Z,-2.92
2018-02-27T11:12:39.364Z,-2.86
2018-02-27T11:15:09.831Z,-2.74
2018-02-27T11:17:39.793Z,-2.54
2018-02-27T11:20:09.584Z,-2.57
2018-02-27T11:22:40.065Z,-2.48
2018-02-27T11:25:09.737Z,-2.32
2018-02-27T11:27:39.585Z,-2.52
2018-02-27T11:30:09.380Z,-2.75
2018-02-27T11:32:39.533Z,-2.75
2018-02-27T11:35:09.062Z,-2.53
2018-02-27T11:37:38.861Z,-2.42
2018-02-27T11:40:08.994Z,-2.80
2018-02-27T11:42:39.192Z,-2.24
2018-02-27T11:45:09.150Z,-2.19
2018-02-27T11:47:38.936Z,-2.12
2018-02-27T11:50:08.399Z,-2.14
2018-02-27T11:52:39.328Z,-2.24
2018-02-27T11:55:09.241Z,-2.02
2018-02-27T11:57:39.115Z,-1.89
2018-02-27T12:00:09.082Z,-1.94
2018-02-27T12:02:39.526Z,-2.20
2018-02-27T12:05:08.940Z,-2.07
2018-02-27T12:07:40.290Z,-2.12
2018-02-27T12:10:09.896Z,-1.95
2018-02-27T12:12:41.055Z,-1.65
2018-02-27T12:15:12.263Z,-1.72
2018-02-27T12:17:42.985Z,-1.51
2018-02-27T12:20:13.108Z,-1.53
2018-02-27T12:22:43.994Z,-1.41
2018-02-27T12:25:14.016Z,-1.57
2018-02-27T12:27:44.198Z,-1.15
2018-02-27T12:30:14.943Z,-1.25
2018-02-27T12:32:44.405Z,-1.12
2018-02-27T12:35:13.846Z,-0.88
2018-02-27T12:37:43.294Z,-0.56
2018-02-27T12:40:12.999Z,-0.63
2018-02-27T12:42:42.831Z,-0.82
2018-02-27T12:45:12.375Z,-0.81
2018-02-27T12:47:42.188Z,-0.94
2018-02-27T12:50:11.654Z,-1.14
2018-02-27T12:52:41.087Z,-0.96
2018-02-27T12:55:10.854Z,-0.86
2018-02-27T12:57:40.938Z,-0.88
2018-02-27T13:00:10.538Z,-0.69
2018-02-27T13:02:40.737Z,-0.54
2018-02-27T13:05:10.173Z,-0.54
2018-02-27T13:07:39.655Z,-0.18
2018-02-27T13:10:09.266Z,-0.53
2018-02-27T13:12:39.334Z,-0.94
2018-02-27T13:15:08.775Z,-0.78
2018-02-27T13:17:38.175Z,-0.39
2018-02-27T13:20:08.378Z,-0.14
2018-02-27T13:22:38.563Z,-0.24
2018-02-27T13:25:08.073Z,-0.39
2018-02-27T13:27:38.052Z,-0.32
2018-02-27T13:30:08.269Z,-0.35
2018-02-27T13:32:37.782Z,-0.34
2018-02-27T13:35:07.438Z,0.15
2018-02-27T13:37:37.981Z,0.22
2018-02-27T13:40:07.785Z,0.27
2018-02-27T13:42:38.196Z,-0.06
2018-02-27T13:45:07.737Z,-0.21
2018-02-27T13:47:37.868Z,-0.06
2018-02-27T13:50:07.366Z,0.26
2018-02-27T13:52:36.834Z,0.37
2018-02-27T13:55:06.467Z,0.39
2018-02-27T13:57:36.564Z,0.53
2018-02-27T14:00:06.084Z,0.87
2018-02-27T14:02:35.509Z,1.00
2018-02-27T14:05:05.015Z,1.02
2018-02-27T14:07:34.946Z,1.38
2018-02-27T14:10:04.997Z,1.38
2018-02-27T14:12:34.852Z,0.82
2018-02-27T14:15:04.700Z,0.86
2018-02-27T14:17:34.470Z,0.52
2018-02-27T14:20:04.074Z,0.49
2018-02-27T14:22:33.561Z,0.83
2018-02-27T14:25:04.990Z,0.88
2018-02-27T14:27:34.872Z,0.81
2018-02-27T14:30:04.720Z,0.75
2018-02-27T14:32:34.215Z,0.47
2018-02-27T14:35:03.713Z,0.76
2018-02-27T14:37:33.194Z,0.71
2018-02-27T14:40:02.658Z,0.41
2018-02-27T14:42:32.386Z,0.43
2018-02-27T14:45:01.808Z,0.42
2018-02-27T14:47:31.811Z,0.38
2018-02-27T14:50:01.836Z,0.65
2018-02-27T14:52:32.271Z,0.09
2018-02-27T14:55:01.773Z,0.10
2018-02-27T14:57:31.487Z,0.09
2018-02-27T15:00:01.098Z,0.02
2018-02-27T15:02:30.981Z,0.07
2018-02-27T15:05:00.577Z,-0.02
2018-02-27T15:07:30.050Z,0.28
2018-02-27T15:09:59.497Z,0.52
2018-02-27T15:12:29.834Z,0.53
2018-02-27T15:14:59.779Z,-0.13
2018-02-27T15:17:30.782Z,-0.47
2018-02-27T15:20:01.245Z,-0.77
2018-02-27T15:22:31.209Z,-0.99
2018-02-27T15:25:00.638Z,-1.04
2018-02-27T15:27:32.227Z,-1.08
2018-02-27T15:30:02.859Z,-1.17
2018-02-27T15:32:32.912Z,-1.26
2018-02-27T15:35:02.522Z,-1.24
2018-02-27T15:37:33.054Z,-1.56
2018-02-27T15:40:03.278Z,-1.32
2018-02-27T15:42:32.771Z,-1.12
2018-02-27T15:45:02.274Z,-1.09
2018-02-27T15:47:32.097Z,-1.21
2018-02-27T15:50:02.368Z,-1.32
2018-02-27T15:52:31.840Z,-1.65
2018-02-27T15:55:01.772Z,-1.46
2018-02-27T15:57:32.108Z,-1.73
2018-02-27T16:00:01.620Z,-1.56
2018-02-27T16:02:31.371Z,-1.86
2018-02-27T16:05:00.924Z,-1.95
2018-02-27T16:07:30.486Z,-2.14
2018-02-27T16:10:00.275Z,-2.22
2018-02-27T16:12:29.730Z,-2.19
2018-02-27T16:14:59.289Z,-2.26
2018-02-27T16:17:29.025Z,-2.39
2018-02-27T16:19:58.441Z,-2.38
2018-02-27T16:22:28.141Z,-2.52
2018-02-27T16:24:57.914Z,-2.55
2018-02-27T16:27:27.969Z,-2.50
2018-02-27T16:29:57.422Z,-2.39
2018-02-27T16:32:27.652Z,-2.65
2018-02-27T16:34:57.062Z,-2.64
2018-02-27T16:37:27.420Z,-2.77
2018-02-27T16:39:57.232Z,-3.09
2018-02-27T16:42:27.418Z,-3.17
2018-02-27T16:44:56.852Z,-2.98
2018-02-27T16:47:26.621Z,-3.15
2018-02-27T16:49:56.032Z,-3.14
2018-02-27T16:52:25.600Z,-3.31
2018-02-27T16:54:55.455Z,-3.33
2018-02-27T16:57:25.177Z,-3.27
2018-02-27T16:59:56.099Z,-3.31
2018-02-27T17:02:26.258Z,-3.36
2018-02-27T17:04:55.737Z,-3.36
2018-02-27T17:07:25.786Z,-3.48
2018-02-27T17:09:55.638Z,-3.41
2018-02-27T17:12:25.423Z,-3.51
2018-02-27T17:14:55.221Z,-3.46
2018-02-27T17:17:25.005Z,-3.52
2018-02-27T17:19:55.053Z,-3.59
2018-02-27T17:22:24.549Z,-3.65
2018-02-27T17:24:54.617Z,-3.74
2018-02-27T17:27:24.604Z,-3.69
2018-02-27T17:29:55.055Z,-3.74
2018-02-27T17:32:26.026Z,-3.87
2018-02-27T17:34:55.541Z,-3.86
2018-02-27T17:37:25.126Z,-4.11
2018-02-27T17:39:54.808Z,-4.09
2018-02-27T17:42:24.269Z,-4.12
2018-02-27T17:44:53.769Z,-4.08
2018-02-27T17:47:23.658Z,-4.18
2018-02-27T17:49:53.240Z,-4.39
2018-02-27T17:52:22.965Z,-4.29
2018-02-27T17:54:52.950Z,-4.28
2018-02-27T17:57:23.344Z,-4.24
2018-02-27T17:59:52.761Z,-4.37
2018-02-27T18:03:46.936Z,-4.36
2018-02-27T18:06:16.901Z,-4.56
2018-02-27T18:08:47.208Z,-4.62
2018-02-27T18:11:17.455Z,-4.63
2018-02-27T18:13:47.241Z,-4.49
2018-02-27T18:16:17.250Z,-4.60
2018-02-27T18:18:46.889Z,-4.54
2018-02-27T18:21:16.705Z,-4.56
2018-02-27T18:23:46.616Z,-4.60
2018-02-27T18:26:16.578Z,-4.51
2018-02-27T18:28:46.569Z,-4.58
2018-02-27T18:31:16.064Z,-4.63
2018-02-27T18:33:46.509Z,-4.66
2018-02-27T18:36:15.982Z,-4.89
2018-02-27T18:38:46.347Z,-4.76
2018-02-27T18:41:15.994Z,-4.70
2018-02-27T18:43:45.488Z,-4.69
2018-02-27T18:46:15.306Z,-4.75
2018-02-27T18:48:45.102Z,-5.01
2018-02-27T18:51:14.593Z,-5.06
2018-02-27T18:53:44.547Z,-4.86
2018-02-27T18:56:14.200Z,-4.93
2018-02-27T18:58:44.070Z,-4.94
2018-02-27T19:01:14.351Z,-5.36
2018-02-27T19:03:44.818Z,-4.99
2018-02-27T19:06:14.306Z,-4.95
2018-02-27T19:08:44.107Z,-4.89
2018-02-27T19:11:13.823Z,-5.06
2018-02-27T19:13:43.327Z,-5.09
2018-02-27T19:16:13.627Z,-5.52
2018-02-27T19:18:43.095Z,-5.06
2018-02-27T19:21:12.785Z,-5.08
2018-02-27T19:23:42.833Z,-5.19
2018-02-27T19:26:12.505Z,-5.02
2018-02-27T19:28:42.063Z,-5.01
2018-02-27T19:31:12.589Z,-5.13
2018-02-27T19:33:42.059Z,-5.23
2018-02-27T19:36:12.473Z,-5.24
2018-02-27T19:38:42.643Z,-5.25
2018-02-27T19:41:12.134Z,-5.24
2018-02-27T19:43:41.779Z,-5.27
2018-02-27T19:46:12.920Z,-5.31
2018-02-27T19:48:42.936Z,-5.36
2018-02-27T19:51:13.357Z,-5.43
2018-02-27T19:53:43.253Z,-5.39
2018-02-27T19:56:12.835Z,-5.36
2018-02-27T19:58:42.360Z,-5.41
2018-02-27T20:01:12.496Z,-5.37
2018-02-27T20:03:41.960Z,-5.41
2018-02-27T20:06:11.482Z,-5.45
2018-02-27T20:08:42.304Z,-5.46
2018-02-27T20:11:11.879Z,-5.46
2018-02-27T20:13:41.884Z,-5.48
2018-02-27T20:16:11.890Z,-5.43
2018-02-27T20:18:42.092Z,-5.56
2018-02-27T20:21:11.515Z,-5.60
2018-02-27T20:23:46.198Z,-5.46
2018-02-27T20:26:16.197Z,-5.51
2018-02-27T20:28:49.659Z,-5.51
2018-02-27T20:31:19.529Z,-5.55
2018-02-27T20:33:49.117Z,-5.51
2018-02-27T20:36:18.528Z,-5.63
2018-02-27T20:38:52.755Z,-5.70
2018-02-27T20:41:22.438Z,-5.50
2018-02-27T20:43:51.965Z,-5.50
2018-02-27T20:46:21.754Z,-5.54
2018-02-27T20:48:51.400Z,-5.57
2018-02-27T20:51:20.850Z,-5.59
2018-02-27T20:53:51.153Z,-5.75
2018-02-27T20:56:20.696Z,-5.67
2018-02-27T20:58:50.617Z,-5.65
2018-02-27T21:01:20.534Z,-5.76
2018-02-27T21:03:49.991Z,-5.87
2018-02-27T21:06:20.231Z,-5.90
2018-02-27T21:08:50.017Z,-5.83
2018-02-27T21:11:19.461Z,-5.88
2018-02-27T21:13:48.961Z,-5.88
2018-02-27T21:16:19.025Z,-5.84
2018-02-27T21:18:48.868Z,-5.77
2018-02-27T21:21:18.705Z,-5.80
2018-02-27T21:23:48.535Z,-5.85
2018-02-27T21:26:18.931Z,-5.74
2018-02-27T21:28:49.277Z,-5.89
2018-02-27T21:31:19.858Z,-5.76
2018-02-27T21:33:49.374Z,-5.83
2018-02-27T21:36:18.929Z,-6.05
2018-02-27T21:38:49.421Z,-6.08
2018-02-27T21:41:19.134Z,-5.90
2018-02-27T21:43:49.187Z,-5.93
2018-02-27T21:46:19.760Z,-5.93
2018-02-27T21:48:49.303Z,-6.02
2018-02-27T21:51:19.323Z,-5.80
2018-02-27T21:53:49.488Z,-5.86
2018-02-27T21:56:18.895Z,-5.88
2018-02-27T21:58:50.279Z,-5.98
2018-02-27T22:01:20.592Z,-5.89
2018-02-27T22:03:50.091Z,-6.04
2018-02-27T22:06:20.899Z,-6.07
2018-02-27T22:08:51.168Z,-6.12
2018-02-27T22:11:20.902Z,-6.09
2018-02-27T22:13:51.067Z,-6.11
2018-02-27T22:16:21.120Z,-6.14
2018-02-27T22:18:50.951Z,-6.30
2018-02-27T22:21:20.390Z,-6.17
2018-02-27T22:23:50.666Z,-6.15
2018-02-27T22:26:20.592Z,-6.28
2018-02-27T22:28:50.720Z,-6.33
2018-02-27T22:31:21.307Z,-6.32
2018-02-27T22:33:51.513Z,-6.29
2018-02-27T22:36:20.942Z,-6.33
2018-02-27T22:38:50.814Z,-6.45
2018-02-27T22:41:20.550Z,-6.54
2018-02-27T22:43:49.956Z,-6.64
2018-02-27T22:46:19.711Z,-6.59
2018-02-27T22:48:50.216Z,-6.67
2018-02-27T22:51:20.398Z,-6.66
2018-02-27T22:53:50.364Z,-6.67
2018-02-27T22:56:20.017Z,-6.57
2018-02-27T22:58:49.636Z,-6.53
2018-02-27T23:01:19.443Z,-6.51
2018-02-27T23:03:49.343Z,-6.57
2018-02-27T23:06:19.613Z,-6.61
2018-02-27T23:08:49.769Z,-6.50
2018-02-27T23:11:20.420Z,-6.56
2018-02-27T23:13:49.910Z,-6.57
2018-02-27T23:16:20.887Z,-6.57
2018-02-27T23:18:50.828Z,-6.57
2018-02-27T23:21:20.320Z,-6.61
2018-02-27T23:24:00.584Z,-6.71
2018-02-27T23:26:50.666Z,-6.83
2018-02-27T23:29:25.561Z,-6.84
2018-02-27T23:31:59.623Z,-6.82
2018-02-27T23:34:56.765Z,-6.70
2018-02-27T23:37:27.188Z,-6.88
2018-02-27T23:39:57.609Z,-6.77
2018-02-27T23:42:27.360Z,-6.75
2018-02-27T23:44:56.904Z,-6.80
2018-02-27T23:47:27.002Z,-6.82
2018-02-27T23:49:56.822Z,-6.75
2018-02-27T23:52:26.922Z,-6.83
2018-02-27T23:54:57.616Z,-6.83
2018-02-27T23:57:28.598Z,-6.88
2018-02-27T23:59:58.458Z,-6.89
